This is the latest recevied weather packets stored in our database for station/object OK2ILA-14. If no packets are shown the sender has not sent any weather packets the latest 10 day(s).
| Time | Temp. | Humidity | Pressure | Rain* | Wind** | Luminosity | Snow |
|---|---|---|---|---|---|---|---|
| 1777941859 | 9.44° C | 67% | 1010.9 hPa | - | - | - | - |
| 1777941259 | 10.56° C | 65% | 1010.9 hPa | - | - | - | - |
| 1777940659 | 9.44° C | 68% | 1011 hPa | - | - | - | - |
| 1777940058 | 8.89° C | 72% | 1011.2 hPa | - | - | - | - |
| 1777939458 | 8.89° C | 73% | 1011.2 hPa | - | - | - | - |
| 1777938858 | 8.89° C | 72% | 1011.3 hPa | - | - | - | - |
| 1777938258 | 8.89° C | 72% | 1011.5 hPa | - | - | - | - |
| 1777937658 | 9.44° C | 72% | 1011.5 hPa | - | - | - | - |
| 1777937058 | 9.44° C | 72% | 1011.6 hPa | - | - | - | - |
| 1777936458 | 9.44° C | 71% | 1011.7 hPa | - | - | - | - |
| 1777935257 | 10° C | 70% | 1011.8 hPa | - | - | - | - |
| 1777934657 | 10° C | 69% | 1011.9 hPa | - | - | - | - |
| 1777934064 | 10° C | 68% | 1012 hPa | - | - | - | - |
| 1777933457 | 10.56° C | 66% | 1012 hPa | - | - | - | - |
| 1777932857 | 10.56° C | 65% | 1012 hPa | - | - | - | - |
| 1777932259 | 11.11° C | 64% | 1012 hPa | - | - | - | - |
| 1777931655 | 11.11° C | 64% | 1011.9 hPa | - | - | - | - |
| 1777931055 | 11.11° C | 64% | 1011.9 hPa | - | - | - | - |
| 1777930455 | 11.11° C | 63% | 1012 hPa | - | - | - | - |
| 1777929855 | 11.11° C | 63% | 1012.1 hPa | - | - | - | - |
| 1777929254 | 11.67° C | 62% | 1012 hPa | - | - | - | - |
| 1777928656 | 11.67° C | 62% | 1012 hPa | - | - | - | - |
| 1777928054 | 12.22° C | 60% | 1012.1 hPa | - | - | - | - |
| 1777927454 | 12.78° C | 58% | 1012 hPa | - | - | - | - |
| 1777926854 | 12.78° C | 57% | 1012 hPa | - | - | - | - |
* Rain since midnight (hover to see other rain measurements)
** Current wind speed in m/s (hover to see current wind gust speed)